createdAt,value
2019-01-05T00:02:30.642Z,100001.20
2019-01-05T00:07:20.040Z,99994.33
2019-01-05T00:09:50.741Z,99990.50
2019-01-05T00:12:21.404Z,99984.09
2019-01-05T00:14:52.215Z,99982.81
2019-01-05T00:17:22.895Z,99984.96
2019-01-05T00:22:33.868Z,99977.68
2019-01-05T00:25:04.635Z,99976.84
2019-01-05T00:27:35.329Z,99975.55
2019-01-05T00:30:06.016Z,99981.52
2019-01-05T00:32:58.525Z,99972.56
2019-01-05T00:35:50.973Z,99976.42
2019-01-05T00:40:54.408Z,99970.00
2019-01-05T00:43:46.876Z,99973.42
2019-01-05T00:46:39.332Z,99974.28
2019-01-05T00:49:31.771Z,99974.69
2019-01-05T00:52:24.231Z,99975.12
2019-01-05T00:54:55.001Z,99969.55
2019-01-05T00:57:25.795Z,99976.83
2019-01-05T01:00:18.241Z,99979.81
2019-01-05T01:02:49.038Z,99981.95
2019-01-05T01:05:19.707Z,99980.23
2019-01-05T01:07:50.500Z,99980.25
2019-01-05T01:10:42.941Z,99979.83
2019-01-05T01:13:13.653Z,99980.69
2019-01-05T01:16:06.103Z,99982.39
2019-01-05T01:18:36.796Z,99986.66
2019-01-05T01:21:29.274Z,99989.20
2019-01-05T01:24:00.046Z,99985.81
2019-01-05T01:26:30.819Z,99988.81
2019-01-05T01:29:23.292Z,99988.81
2019-01-05T01:31:54.064Z,99989.64
2019-01-05T01:34:24.863Z,99989.66
2019-01-05T01:42:08.828Z,99984.94
2019-01-05T01:45:01.291Z,99975.12
2019-01-05T01:47:32.160Z,99981.07
2019-01-05T01:50:03.073Z,99975.53
2019-01-05T01:55:06.100Z,99977.67
2019-01-05T01:57:58.545Z,99969.99
2019-01-05T02:00:51.022Z,99972.97
2019-01-05T02:03:43.457Z,99972.55
2019-01-05T02:06:35.911Z,99955.46
2019-01-05T02:09:28.372Z,99956.72
2019-01-05T02:12:20.824Z,99951.19
2019-01-05T02:14:51.609Z,99955.02
2019-01-05T02:17:43.394Z,99948.60
2019-01-05T02:20:53.830Z,99952.87
2019-01-05T02:23:46.267Z,99949.88
2019-01-05T02:26:56.692Z,99945.59
2019-01-05T02:29:49.128Z,99946.45
2019-01-05T02:32:41.604Z,99944.73
2019-01-05T02:35:52.001Z,99937.89
2019-01-05T02:38:44.469Z,99933.61
2019-01-05T02:41:54.903Z,99934.05
2019-01-05T02:44:47.325Z,99931.90
2019-01-05T02:47:39.787Z,99925.95
2019-01-05T02:50:50.225Z,99924.64
2019-01-05T02:54:00.660Z,99921.65
2019-01-05T02:56:53.087Z,99913.95
2019-01-05T02:59:45.565Z,99908.84
2019-01-05T03:02:55.970Z,99903.70
2019-01-05T03:06:06.393Z,99898.16
2019-01-05T03:08:58.844Z,99886.19
2019-01-05T03:12:09.246Z,99884.05
2019-01-05T03:14:43.761Z,99875.52
2019-01-05T03:20:15.279Z,99860.13
2019-01-05T03:23:07.742Z,99853.30
2019-01-05T03:26:18.172Z,99852.03
2019-01-05T03:29:10.607Z,99845.60
2019-01-05T03:32:21.035Z,99849.85
2019-01-05T03:35:13.487Z,99850.73
2019-01-05T03:38:05.916Z,99838.78
2019-01-05T03:40:58.364Z,99824.69
2019-01-05T03:47:23.681Z,99804.63
2019-01-05T03:50:16.120Z,99799.97
2019-01-05T03:53:08.586Z,99794.83
2019-01-05T03:59:20.869Z,99796.11
2019-01-05T04:02:31.304Z,99793.96
2019-01-05T04:05:41.692Z,99790.56
2019-01-05T04:11:35.450Z,99785.00
2019-01-05T04:14:27.921Z,99792.68
2019-01-05T04:17:20.379Z,99798.66
2019-01-05T04:20:30.801Z,99796.12
2019-01-05T04:23:23.268Z,99794.40
2019-01-05T04:26:33.668Z,99797.81
2019-01-05T04:29:44.095Z,99786.30
2019-01-05T04:32:54.516Z,99779.00
2019-01-05T04:35:46.951Z,99783.28
2019-01-05T04:38:39.414Z,99777.28
2019-01-05T04:41:31.858Z,99782.84
2019-01-05T04:44:24.305Z,99776.02
2019-01-05T04:47:34.708Z,99774.71
2019-01-05T04:50:27.159Z,99775.55
2019-01-05T04:53:19.592Z,99762.31
2019-01-05T04:56:30.036Z,99765.30
2019-01-05T04:59:22.503Z,99758.47
2019-01-05T05:02:14.936Z,99762.74
2019-01-05T05:05:25.354Z,99757.20
2019-01-05T05:08:35.757Z,99751.64
2019-01-05T05:11:46.175Z,99745.70
2019-01-05T05:14:38.629Z,99733.73
2019-01-05T05:20:32.648Z,99730.72
2019-01-05T05:23:25.082Z,99724.78
2019-01-05T05:26:35.502Z,99729.88
2019-01-05T05:29:45.933Z,99725.63
2019-01-05T05:35:57.738Z,99719.20
2019-01-05T05:42:05.048Z,99718.36
2019-01-05T05:44:57.472Z,99717.92
2019-01-05T05:54:14.507Z,99696.19
2019-01-05T05:57:24.937Z,99697.05
2019-01-05T06:00:17.401Z,99695.75
2019-01-05T06:03:09.865Z,99687.64
2019-01-05T06:06:20.278Z,99689.34
2019-01-05T06:12:27.864Z,99686.80
2019-01-05T06:15:38.267Z,99684.66
2019-01-05T06:18:30.784Z,99682.95
2019-01-05T06:21:41.212Z,99676.11
2019-01-05T06:24:33.663Z,99682.50
2019-01-05T06:27:26.101Z,99681.23
2019-01-05T06:30:18.555Z,99691.05
2019-01-05T06:33:28.963Z,99686.34
2019-01-05T06:36:39.385Z,99672.70
2019-01-05T06:39:49.796Z,99681.22
2019-01-05T06:46:01.814Z,99668.02
2019-01-05T06:49:12.231Z,99656.08
2019-01-05T06:52:22.636Z,99650.11
2019-01-05T06:55:33.054Z,99655.66
2019-01-05T06:58:43.489Z,99650.10
2019-01-05T07:01:35.941Z,99653.95
2019-01-05T07:04:28.389Z,99655.20
2019-01-05T07:07:20.851Z,99660.34
2019-01-05T07:10:13.305Z,99662.05
2019-01-05T07:13:05.789Z,99656.52
2019-01-05T07:16:16.203Z,99650.13
2019-01-05T07:31:16.185Z,99645.86
2019-01-05T07:34:26.621Z,99637.75
2019-01-05T07:37:19.056Z,99637.77
2019-01-05T07:40:11.522Z,99639.89
2019-01-05T07:43:21.953Z,99649.69
2019-01-05T07:49:29.505Z,99644.16
2019-01-05T07:52:39.909Z,99637.33
2019-01-05T07:55:32.374Z,99629.66
2019-01-05T08:01:26.309Z,99627.93
2019-01-05T08:07:41.440Z,99630.07
2019-01-05T08:13:38.930Z,99633.48
2019-01-05T08:16:49.323Z,99630.07
2019-01-05T08:19:44.857Z,99621.55
2019-01-05T08:22:37.342Z,99627.10
2019-01-05T08:25:29.811Z,99627.50
2019-01-05T08:28:40.241Z,99625.80
2019-01-05T08:31:32.723Z,99633.90
2019-01-05T08:34:43.128Z,99621.96
2019-01-05T08:37:35.586Z,99620.27
2019-01-05T08:40:28.042Z,99629.23
2019-01-05T08:46:53.556Z,99622.38
2019-01-05T08:50:03.954Z,99626.66
2019-01-05T08:53:14.383Z,99624.52
2019-01-05T08:56:24.800Z,99621.98
2019-01-05T08:59:17.289Z,99631.77
2019-01-05T09:02:27.778Z,99628.80
2019-01-05T09:05:38.248Z,99641.61
2019-01-05T09:08:30.715Z,99636.05
2019-01-05T09:11:41.132Z,99634.75
2019-01-05T09:17:48.524Z,99598.94
2019-01-05T09:20:58.957Z,99594.66
2019-01-05T09:24:09.403Z,99601.91
2019-01-05T09:27:01.852Z,99595.09
2019-01-05T09:30:20.995Z,99597.23
2019-01-05T09:33:13.698Z,99592.51
2019-01-05T09:36:24.123Z,99597.22
2019-01-05T09:39:34.547Z,99599.34
2019-01-05T09:45:28.504Z,99600.20
2019-01-05T09:48:20.968Z,99599.36
2019-01-05T09:51:13.451Z,99600.20
2019-01-05T09:57:10.140Z,99592.09
2019-01-05T10:00:20.586Z,99590.83
2019-01-05T10:03:13.037Z,99586.52
2019-01-05T10:06:05.507Z,99590.16
2019-01-05T10:08:57.946Z,99592.91
2019-01-05T10:12:08.381Z,99588.19
2019-01-05T10:15:00.841Z,99589.23
2019-01-05T10:18:11.258Z,99579.98
2019-01-05T10:24:22.812Z,99580.92
2019-01-05T10:27:15.263Z,99586.48
2019-01-05T10:30:25.700Z,99590.75
2019-01-05T10:36:50.998Z,99600.17
2019-01-05T10:39:43.464Z,99591.64
2019-01-05T10:42:35.961Z,99591.64
2019-01-05T10:45:46.382Z,99585.22
2019-01-05T10:48:56.804Z,99591.21
2019-01-05T10:51:49.282Z,99586.09
2019-01-05T10:54:59.728Z,99586.94
2019-01-05T10:58:10.173Z,99589.06
2019-01-05T11:01:20.578Z,99583.11
2019-01-05T11:04:31.014Z,99588.63
2019-01-05T11:07:41.444Z,99588.20
2019-01-05T11:10:51.882Z,99581.36
2019-01-05T11:13:44.359Z,99581.80
2019-01-05T11:16:54.792Z,99575.83
2019-01-05T11:20:05.226Z,99565.14
2019-01-05T11:22:57.687Z,99561.75
2019-01-05T11:26:08.133Z,99555.30
2019-01-05T11:32:01.756Z,99560.42
2019-01-05T11:44:16.412Z,99553.55
2019-01-05T11:47:26.840Z,99550.97
2019-01-05T11:50:37.348Z,99550.09
2019-01-05T11:56:44.614Z,99543.25
2019-01-05T11:59:55.019Z,99538.52
2019-01-05T12:02:47.500Z,99535.52
2019-01-05T12:05:57.933Z,99534.20
2019-01-05T12:08:50.390Z,99528.67
2019-01-05T12:11:42.854Z,99532.51
2019-01-05T12:14:35.304Z,99529.92
2019-01-05T12:17:45.754Z,99526.92
2019-01-05T12:20:38.228Z,99525.66
2019-01-05T12:23:30.755Z,99520.48
2019-01-05T12:26:41.161Z,99517.33
2019-01-05T12:29:51.577Z,99511.76
2019-01-05T12:32:44.061Z,99516.11
2019-01-05T12:38:48.613Z,99516.36
2019-01-05T12:41:41.066Z,99515.14
2019-01-05T12:47:35.292Z,99510.23
2019-01-05T12:50:45.688Z,99510.72
2019-01-05T12:53:56.133Z,99509.91
2019-01-05T12:57:06.565Z,99506.95
2019-01-05T13:00:16.999Z,99507.80
2019-01-05T13:06:42.530Z,99507.81
2019-01-05T13:12:37.007Z,99507.38
2019-01-05T13:15:47.449Z,99499.70
2019-01-05T13:18:57.888Z,99501.39
2019-01-05T13:21:50.392Z,99507.03
2019-01-05T13:25:00.838Z,99494.20
2019-01-05T13:27:53.300Z,99505.30
2019-01-05T13:30:45.806Z,99509.98
2019-01-05T13:33:38.258Z,99495.48
2019-01-05T13:36:30.768Z,99502.77
2019-01-05T13:39:23.213Z,99507.87
2019-01-05T13:45:17.343Z,99514.28
2019-01-05T13:48:27.758Z,99519.00
2019-01-05T13:51:20.223Z,99520.23
2019-01-05T13:54:12.679Z,99516.41
2019-01-05T14:01:45.852Z,99520.28
2019-01-05T14:04:16.535Z,99519.44
2019-01-05T14:06:47.266Z,99520.25
2019-01-05T14:09:17.934Z,99510.85
2019-01-05T14:14:21.016Z,99521.97
2019-01-05T14:16:51.699Z,99527.55
2019-01-05T14:19:22.498Z,99528.05
2019-01-05T14:21:53.218Z,99529.50
2019-01-05T14:24:23.916Z,99536.95
2019-01-05T14:29:27.004Z,99528.09
2019-01-05T14:31:57.676Z,99526.00
2019-01-05T14:36:47.139Z,99534.39
2019-01-05T14:39:17.835Z,99534.53
2019-01-05T14:41:48.565Z,99533.34
2019-01-05T14:46:41.477Z,99524.08
2019-01-05T14:49:12.147Z,99525.41
2019-01-05T14:51:42.850Z,99529.27
2019-01-05T14:54:13.516Z,99530.16
2019-01-05T14:56:44.224Z,99530.62
2019-01-05T14:59:14.936Z,99531.08
2019-01-05T15:04:07.755Z,99532.34
2019-01-05T15:15:53.480Z,99538.80
2019-01-05T15:20:46.360Z,99534.08
2019-01-05T15:25:49.504Z,99527.23
2019-01-05T15:28:20.192Z,99536.66
2019-01-05T15:30:50.895Z,99539.65
2019-01-05T15:33:21.585Z,99536.64
2019-01-05T15:35:52.472Z,99543.91
2019-01-05T15:38:23.169Z,99543.05
2019-01-05T15:40:53.864Z,99545.19
2019-01-05T15:43:24.583Z,99538.34
2019-01-05T15:45:55.575Z,99549.87
2019-01-05T15:48:26.296Z,99545.97
2019-01-05T15:50:59.227Z,99541.30
2019-01-05T15:53:29.921Z,99546.02
2019-01-05T15:58:15.117Z,99540.05
2019-01-05T16:00:37.159Z,99538.37
2019-01-05T16:03:06.659Z,99539.21
2019-01-05T16:05:19.426Z,99543.91
2019-01-05T16:07:38.136Z,99547.28
2019-01-05T16:10:06.239Z,99550.28
2019-01-05T16:12:35.606Z,99551.98
2019-01-05T16:15:06.545Z,99550.31
2019-01-05T16:17:31.125Z,99558.39
2019-01-05T16:19:43.944Z,99554.55
2019-01-05T16:21:56.699Z,99564.84
2019-01-05T16:24:12.266Z,99552.44
2019-01-05T16:26:28.013Z,99558.02
2019-01-05T16:28:40.716Z,99568.72
2019-01-05T16:31:05.810Z,99566.09
2019-01-05T16:33:33.340Z,99564.86
2019-01-05T16:35:48.866Z,99570.84
2019-01-05T16:38:01.617Z,99568.69
2019-01-05T16:40:17.189Z,99569.99
2019-01-05T16:42:32.718Z,99566.98
2019-01-05T16:44:48.272Z,99570.41
2019-01-05T16:47:04.058Z,99570.84
2019-01-05T16:49:25.864Z,99572.52
2019-01-05T16:51:55.131Z,99571.23
2019-01-05T16:54:13.843Z,99563.97
2019-01-05T16:56:26.564Z,99564.81
2019-01-05T16:58:56.142Z,99568.62
2019-01-05T17:01:25.554Z,99569.48
2019-01-05T17:03:54.930Z,99567.34
2019-01-05T17:06:10.494Z,99568.20
2019-01-05T17:08:40.101Z,99574.22
2019-01-05T17:10:55.588Z,99577.17
2019-01-05T17:13:11.240Z,99571.63
2019-01-05T17:15:29.985Z,99571.19
2019-01-05T17:17:48.806Z,99582.75
2019-01-05T17:20:18.172Z,99572.88
2019-01-05T17:22:30.913Z,99578.48
2019-01-05T17:24:46.665Z,99575.47
2019-01-05T17:27:02.339Z,99581.83
2019-01-05T17:29:24.126Z,99585.23
2019-01-05T17:31:36.838Z,99578.80
2019-01-05T17:33:52.342Z,99582.23
2019-01-05T17:36:21.892Z,99583.13
2019-01-05T17:38:37.418Z,99577.95
2019-01-05T17:40:52.891Z,99571.97
2019-01-05T17:43:08.539Z,99566.83
2019-01-05T17:45:33.049Z,99564.36
2019-01-05T17:48:01.149Z,99570.94
2019-01-05T17:50:16.906Z,99570.44
2019-01-05T17:52:48.183Z,99565.18
2019-01-05T17:55:17.557Z,99560.66
2019-01-05T17:57:48.285Z,99561.76
2019-01-05T18:00:01.068Z,99553.00
2019-01-05T18:02:25.992Z,99561.06
2019-01-05T18:04:41.772Z,99565.80
2019-01-05T18:07:03.414Z,99564.73
2019-01-05T18:09:26.761Z,99563.28
2019-01-05T18:11:39.397Z,99557.77
2019-01-05T18:14:08.917Z,99560.06
2019-01-05T18:16:38.196Z,99564.86
2019-01-05T18:19:07.586Z,99565.77
2019-01-05T18:21:29.439Z,99568.90
2019-01-05T18:23:42.153Z,99564.64
2019-01-05T18:25:54.999Z,99568.52
2019-01-05T18:28:10.777Z,99566.83
2019-01-05T18:30:40.305Z,99565.10
2019-01-05T18:33:02.088Z,99574.56
2019-01-05T18:35:14.854Z,99572.43
2019-01-05T18:37:36.798Z,99578.88
2019-01-05T18:40:04.699Z,99572.89
2019-01-05T18:42:23.543Z,99577.19
2019-01-05T18:44:54.297Z,99571.66
2019-01-05T18:47:13.197Z,99578.94
2019-01-05T18:49:34.924Z,99568.22
2019-01-05T18:51:47.675Z,99575.48
2019-01-05T18:54:09.238Z,99575.52
2019-01-05T18:56:34.120Z,99564.42
2019-01-05T18:58:49.826Z,99574.18
2019-01-05T19:01:11.400Z,99571.17
2019-01-05T19:03:27.169Z,99568.60
2019-01-05T19:05:56.848Z,99568.19
2019-01-05T19:08:18.555Z,99572.51
2019-01-05T19:10:43.673Z,99571.17
2019-01-05T19:13:08.471Z,99566.84
2019-01-05T19:15:37.848Z,99565.22
2019-01-05T19:17:50.620Z,99573.36
2019-01-05T19:20:06.403Z,99575.47
2019-01-05T19:22:25.443Z,99580.16
2019-01-05T19:24:50.263Z,99578.03
2019-01-05T19:27:05.938Z,99580.16
2019-01-05T19:29:18.661Z,99577.98
2019-01-05T19:31:34.430Z,99587.87
2019-01-05T19:33:53.402Z,99588.74
2019-01-05T19:36:09.155Z,99577.62
2019-01-05T19:38:38.368Z,99588.31
2019-01-05T19:41:07.991Z,99582.27
2019-01-05T19:43:26.545Z,99586.59
2019-01-05T19:45:48.432Z,99590.47
2019-01-05T19:48:03.899Z,99588.74
2019-01-05T19:50:33.316Z,99592.98
2019-01-05T19:52:51.984Z,99581.36
2019-01-05T19:55:22.354Z,99591.64
2019-01-05T19:57:35.144Z,99579.70
2019-01-05T20:00:04.753Z,99580.95
2019-01-05T20:02:29.648Z,99583.12
2019-01-05T20:04:45.111Z,99583.98
2019-01-05T20:07:15.073Z,99579.29
2019-01-05T20:09:46.022Z,99582.65
2019-01-05T20:12:01.476Z,99578.80
2019-01-05T20:14:29.393Z,99579.23
2019-01-05T20:17:00.320Z,99575.76
2019-01-05T20:19:29.612Z,99577.10
2019-01-05T20:21:42.406Z,99576.20
2019-01-05T20:24:00.973Z,99576.25
2019-01-05T20:26:22.494Z,99570.67
2019-01-05T20:28:38.007Z,99573.25
2019-01-05T20:30:50.745Z,99580.95
2019-01-05T20:33:03.509Z,99579.67
2019-01-05T20:35:19.111Z,99576.69
2019-01-05T20:37:37.531Z,99573.66
2019-01-05T20:39:50.296Z,99571.94
2019-01-05T20:42:11.721Z,99576.64
2019-01-05T20:44:42.754Z,99576.63
2019-01-05T20:47:04.461Z,99577.05
2019-01-05T20:49:32.348Z,99577.08
2019-01-05T20:51:45.079Z,99577.95
2019-01-05T20:54:04.009Z,99580.88
2019-01-05T20:56:16.777Z,99582.24
2019-01-05T20:58:38.299Z,99586.94
2019-01-05T21:01:07.574Z,99589.10
2019-01-05T21:03:20.318Z,99583.50
2019-01-05T21:05:33.057Z,99593.77
2019-01-05T21:07:45.915Z,99597.22
2019-01-05T21:10:04.644Z,99599.35
2019-01-05T21:12:23.553Z,99594.21
2019-01-05T21:14:47.940Z,99597.22
2019-01-05T21:17:09.523Z,99596.81
2019-01-05T21:19:22.261Z,99605.75
2019-01-05T21:21:37.888Z,99598.50
2019-01-05T21:23:59.855Z,99597.63
2019-01-05T21:26:29.474Z,99595.91
2019-01-05T21:28:48.051Z,99598.03
2019-01-05T21:31:17.807Z,99601.05
2019-01-05T21:33:33.327Z,99592.05
2019-01-05T21:36:02.926Z,99597.24
2019-01-05T21:38:27.782Z,99601.10
2019-01-05T21:40:43.341Z,99599.35
2019-01-05T21:42:59.014Z,99603.59
2019-01-05T21:45:23.945Z,99604.44
2019-01-05T21:47:51.795Z,99608.34
2019-01-05T21:50:05.337Z,99607.03
2019-01-05T21:52:24.332Z,99604.08
2019-01-05T21:54:40.113Z,99605.37
2019-01-05T21:57:10.694Z,99598.94
2019-01-05T21:59:26.398Z,99603.64
2019-01-05T22:01:41.929Z,99605.34
2019-01-05T22:04:03.226Z,99605.80
2019-01-05T22:06:21.537Z,99603.67
2019-01-05T22:08:34.265Z,99605.77
2019-01-05T22:10:49.897Z,99607.91
2019-01-05T22:13:08.626Z,99612.64
2019-01-05T22:15:26.907Z,99611.38
2019-01-05T22:17:39.617Z,99613.92
2019-01-05T22:19:56.195Z,99613.08
2019-01-05T22:22:08.984Z,99618.63
2019-01-05T22:24:38.836Z,99613.87
2019-01-05T22:27:08.208Z,99612.17
2019-01-05T22:29:37.729Z,99613.02
2019-01-05T22:32:08.612Z,99615.16
2019-01-05T22:34:36.378Z,99619.83
2019-01-05T22:36:58.385Z,99618.16
2019-01-05T22:39:11.109Z,99620.34
2019-01-05T22:41:40.417Z,99618.59
2019-01-05T22:43:53.118Z,99609.98
2019-01-05T22:46:22.489Z,99608.78
2019-01-05T22:48:52.075Z,99613.08
2019-01-05T22:51:07.631Z,99611.73
2019-01-05T22:53:20.353Z,99610.89
2019-01-05T22:55:33.067Z,99612.17
2019-01-05T22:58:02.778Z,99614.30
2019-01-05T23:00:32.125Z,99616.47
2019-01-05T23:02:44.891Z,99610.02
2019-01-05T23:05:03.610Z,99610.02
2019-01-05T23:07:25.646Z,99611.73
2019-01-05T23:09:38.537Z,99607.88
2019-01-05T23:12:09.515Z,99607.94
2019-01-05T23:14:39.188Z,99607.94
2019-01-05T23:16:51.969Z,99602.77
2019-01-05T23:19:04.696Z,99609.55
2019-01-05T23:21:17.406Z,99607.42
2019-01-05T23:23:30.174Z,99599.77
2019-01-05T23:25:45.625Z,99598.88
2019-01-05T23:28:15.024Z,99596.37
2019-01-05T23:30:27.737Z,99595.94
2019-01-05T23:32:40.467Z,99599.30
2019-01-05T23:34:53.195Z,99598.42
2019-01-05T23:37:21.005Z,99595.33
2019-01-05T23:39:51.711Z,99594.89
2019-01-05T23:42:22.433Z,99591.47
2019-01-05T23:47:15.225Z,99592.78
2019-01-05T23:49:45.909Z,99591.53
2019-01-05T23:52:16.575Z,99598.77
2019-01-05T23:57:06.073Z,99597.98
2019-01-05T23:59:36.796Z,99598.45
